createdAt,value
2023-02-11T00:00:32.894Z,13.40
2023-02-11T00:02:59.264Z,12.40
2023-02-11T00:05:25.653Z,12.77
2023-02-11T00:07:52.303Z,12.93
2023-02-11T00:10:18.686Z,12.52
2023-02-11T00:12:45.101Z,12.55
2023-02-11T00:15:11.661Z,12.93
2023-02-11T00:17:37.999Z,12.98
2023-02-11T00:20:07.174Z,13.02
2023-02-11T00:22:34.582Z,11.80
2023-02-11T00:25:00.955Z,12.88
2023-02-11T00:27:27.354Z,11.95
2023-02-11T00:29:53.722Z,12.93
2023-02-11T00:32:20.079Z,12.75
2023-02-11T00:34:46.538Z,12.48
2023-02-11T00:37:13.630Z,11.82
2023-02-11T00:39:39.980Z,12.40
2023-02-11T00:42:06.398Z,12.50
2023-02-11T00:44:32.758Z,12.02
2023-02-11T00:46:59.105Z,12.75
2023-02-11T00:49:25.522Z,12.55
2023-02-11T00:51:52.051Z,12.93
2023-02-11T00:54:18.432Z,12.45
2023-02-11T00:56:44.848Z,12.98
2023-02-11T00:59:11.211Z,12.55
2023-02-11T01:01:37.681Z,11.95
2023-02-11T01:04:04.175Z,12.68
2023-02-11T01:06:30.737Z,12.35
2023-02-11T01:08:57.079Z,12.73
2023-02-11T01:11:23.462Z,12.85
2023-02-11T01:13:50.294Z,12.85
2023-02-11T01:16:18.517Z,13.65
2023-02-11T01:18:44.944Z,12.75
2023-02-11T01:21:11.929Z,12.20
2023-02-11T01:23:38.350Z,12.48
2023-02-11T01:26:05.722Z,13.07
2023-02-11T01:28:32.916Z,13.25
2023-02-11T01:31:01.317Z,13.85
2023-02-11T01:33:28.030Z,13.68
2023-02-11T01:35:54.406Z,13.70
2023-02-11T01:38:25.961Z,12.98
2023-02-11T01:40:57.995Z,12.43
2023-02-11T01:43:25.582Z,11.95
2023-02-11T01:46:12.651Z,13.98
2023-02-11T01:48:43.823Z,13.27
2023-02-11T01:51:20.583Z,11.55
2023-02-11T01:54:06.693Z,11.73
2023-02-11T01:56:55.708Z,12.73
2023-02-11T01:59:32.060Z,14.00
2023-02-11T02:02:02.401Z,13.95
2023-02-11T02:04:35.833Z,11.27
2023-02-11T02:07:08.646Z,12.32
2023-02-11T02:09:41.896Z,13.82
2023-02-11T02:12:08.274Z,13.25
2023-02-11T02:14:38.538Z,13.25
2023-02-11T02:17:04.905Z,12.68
2023-02-11T02:20:09.141Z,12.45
2023-02-11T02:22:58.090Z,13.13
2023-02-11T02:26:14.710Z,14.13
2023-02-11T02:29:18.082Z,12.20
2023-02-11T02:32:16.619Z,13.32
2023-02-11T02:34:53.964Z,13.68
2023-02-11T02:37:47.372Z,12.98
2023-02-11T02:40:21.829Z,14.52
2023-02-11T02:42:49.206Z,12.50
2023-02-11T02:45:16.617Z,12.70
2023-02-11T02:47:44.017Z,13.15
2023-02-11T02:50:13.524Z,13.45
2023-02-11T02:53:18.927Z,12.98
2023-02-11T02:56:00.268Z,12.82
2023-02-11T02:58:54.436Z,13.02
2023-02-11T03:01:56.071Z,12.57
2023-02-11T03:04:38.403Z,13.35
2023-02-11T03:07:29.150Z,12.15
2023-02-11T03:10:02.673Z,12.93
2023-02-11T03:12:32.436Z,12.20
2023-02-11T03:17:27.907Z,11.88
2023-02-11T03:19:55.135Z,13.02
2023-02-11T03:22:34.927Z,13.23
2023-02-11T03:25:02.704Z,13.25
2023-02-11T03:27:38.838Z,13.43
2023-02-11T03:30:30.499Z,12.43
2023-02-11T03:33:29.322Z,12.73
2023-02-11T03:36:01.582Z,13.00
2023-02-11T03:38:37.909Z,13.82
2023-02-11T03:41:07.906Z,13.52
2023-02-11T03:43:38.655Z,14.27
2023-02-11T03:46:06.209Z,14.27
2023-02-11T03:48:39.012Z,13.82
2023-02-11T03:51:07.949Z,14.18
2023-02-11T03:53:34.824Z,13.80
2023-02-11T03:56:04.968Z,13.50
2023-02-11T03:58:31.396Z,13.98
2023-02-11T04:00:57.910Z,14.80
2023-02-11T04:03:24.384Z,14.20
2023-02-11T04:05:51.027Z,12.80
2023-02-11T04:08:17.495Z,14.80
2023-02-11T04:10:45.176Z,14.73
2023-02-11T04:13:11.652Z,14.88
2023-02-11T04:15:38.029Z,14.43
2023-02-11T04:18:04.483Z,13.57
2023-02-11T04:20:30.948Z,13.30
2023-02-11T04:22:57.288Z,14.18
2023-02-11T04:25:24.291Z,13.77
2023-02-11T04:27:50.662Z,14.95
2023-02-11T04:30:17.040Z,14.32
2023-02-11T04:32:43.494Z,13.98
2023-02-11T04:35:09.913Z,13.50
2023-02-11T04:37:36.302Z,13.95
2023-02-11T04:40:02.939Z,13.73
2023-02-11T04:42:29.354Z,14.85
2023-02-11T04:44:55.700Z,14.15
2023-02-11T04:47:22.107Z,14.25
2023-02-11T04:49:48.492Z,13.40
2023-02-11T04:52:16.201Z,13.77
2023-02-11T04:54:42.595Z,14.25
2023-02-11T04:57:08.948Z,14.10
2023-02-11T04:59:35.329Z,12.32
2023-02-11T05:02:01.694Z,14.20
2023-02-11T05:04:28.107Z,14.43
2023-02-11T05:06:55.637Z,15.57
2023-02-11T05:09:23.476Z,15.27
2023-02-11T05:11:49.837Z,14.40
2023-02-11T05:14:16.204Z,14.88
2023-02-11T05:16:42.569Z,14.75
2023-02-11T05:19:08.925Z,16.17
2023-02-11T05:21:35.372Z,14.00
2023-02-11T05:24:01.753Z,16.00
2023-02-11T05:26:28.131Z,15.63
2023-02-11T05:28:54.501Z,15.80
2023-02-11T05:31:20.955Z,13.50
2023-02-11T05:33:47.430Z,15.75
2023-02-11T05:36:14.335Z,15.02
2023-02-11T05:38:42.499Z,15.40
2023-02-11T05:41:09.233Z,15.15
2023-02-11T05:43:36.505Z,15.93
2023-02-11T05:46:06.133Z,15.48
2023-02-11T05:48:32.805Z,15.13
2023-02-11T05:50:59.560Z,16.05
2023-02-11T05:53:26.009Z,15.88
2023-02-11T05:55:52.688Z,15.73
2023-02-11T05:58:19.203Z,15.82
2023-02-11T06:00:45.623Z,15.73
2023-02-11T06:03:12.018Z,16.23
2023-02-11T06:05:38.466Z,15.93
2023-02-11T06:08:05.043Z,16.45
2023-02-11T06:10:31.478Z,14.88
2023-02-11T06:12:57.804Z,15.65
2023-02-11T06:15:24.155Z,16.10
2023-02-11T06:17:50.869Z,16.33
2023-02-11T06:20:17.418Z,16.05
2023-02-11T06:22:43.922Z,15.88
2023-02-11T06:25:11.224Z,16.73
2023-02-11T06:27:38.142Z,16.02
2023-02-11T06:30:06.120Z,15.73
2023-02-11T06:32:43.912Z,14.75
2023-02-11T06:35:12.241Z,15.63
2023-02-11T06:37:39.790Z,12.98
2023-02-11T06:40:06.778Z,15.63
2023-02-11T06:42:33.131Z,16.25
2023-02-11T06:44:59.515Z,15.75
2023-02-11T06:47:25.918Z,16.65
2023-02-11T06:49:52.283Z,14.85
2023-02-11T06:52:18.649Z,15.50
2023-02-11T06:54:46.079Z,15.50
2023-02-11T06:57:12.435Z,15.88
2023-02-11T06:59:38.778Z,16.63
2023-02-11T07:02:05.263Z,14.73
2023-02-11T07:04:31.658Z,15.40
2023-02-11T07:06:58.023Z,17.08
2023-02-11T07:09:24.377Z,16.30
2023-02-11T07:11:50.713Z,15.82
2023-02-11T07:14:17.326Z,16.60
2023-02-11T07:16:43.684Z,16.88
2023-02-11T07:19:10.385Z,16.45
2023-02-11T07:21:36.720Z,17.10
2023-02-11T07:24:08.881Z,16.05
2023-02-11T07:26:37.051Z,13.77
2023-02-11T07:29:03.525Z,17.25
2023-02-11T07:31:31.181Z,17.38
2023-02-11T07:34:00.257Z,17.25
2023-02-11T07:36:27.962Z,16.88
2023-02-11T07:38:54.381Z,16.27
2023-02-11T07:41:22.988Z,14.48
2023-02-11T07:43:49.622Z,17.55
2023-02-11T07:46:35.658Z,21.42
2023-02-11T07:49:02.090Z,17.30
2023-02-11T07:51:30.320Z,17.48
2023-02-11T07:53:59.436Z,16.08
2023-02-11T07:56:26.255Z,16.52
2023-02-11T07:58:52.807Z,16.60
2023-02-11T08:01:24.902Z,17.52
2023-02-11T08:03:52.254Z,16.63
2023-02-11T08:06:20.967Z,16.77
2023-02-11T08:08:47.955Z,17.55
2023-02-11T08:11:17.419Z,17.38
2023-02-11T08:13:44.671Z,16.08
2023-02-11T08:16:19.935Z,15.55
2023-02-11T08:18:46.740Z,16.00
2023-02-11T08:21:13.071Z,15.07
2023-02-11T08:23:40.819Z,16.02
2023-02-11T08:26:11.017Z,14.57
2023-02-11T08:28:39.175Z,16.70
2023-02-11T08:31:07.636Z,17.13
2023-02-11T08:33:34.696Z,15.55
2023-02-11T08:36:01.773Z,16.17
2023-02-11T08:38:28.129Z,15.80
2023-02-11T08:40:54.485Z,15.98
2023-02-11T08:43:20.840Z,15.68
2023-02-11T08:45:47.264Z,16.25
2023-02-11T08:48:13.636Z,16.00
2023-02-11T08:50:39.996Z,15.75
2023-02-11T08:53:06.351Z,15.25
2023-02-11T08:55:32.694Z,14.98
2023-02-11T08:57:59.039Z,15.15
2023-02-11T09:00:25.777Z,15.23
2023-02-11T09:02:52.242Z,16.75
2023-02-11T09:05:18.597Z,14.77
2023-02-11T09:07:44.999Z,14.20
2023-02-11T09:10:11.356Z,13.68
2023-02-11T09:12:37.711Z,14.70
2023-02-11T09:15:04.364Z,15.50
2023-02-11T09:17:30.710Z,16.17
2023-02-11T09:19:57.076Z,16.42
2023-02-11T09:22:23.449Z,17.17
2023-02-11T09:24:49.924Z,17.42
2023-02-11T09:27:16.270Z,15.88
2023-02-11T09:29:42.625Z,16.77
2023-02-11T09:32:10.011Z,15.93
2023-02-11T09:34:36.695Z,16.08
2023-02-11T09:37:03.144Z,16.40
2023-02-11T09:39:29.843Z,16.05
2023-02-11T09:42:20.776Z,16.50
2023-02-11T09:44:47.597Z,17.40
2023-02-11T09:47:31.962Z,13.60
2023-02-11T09:50:13.649Z,16.63
2023-02-11T09:53:02.778Z,17.02
2023-02-11T09:55:42.477Z,16.90
2023-02-11T09:58:21.150Z,16.85
2023-02-11T10:01:10.681Z,15.95
2023-02-11T10:03:43.376Z,16.00
2023-02-11T10:06:24.465Z,16.88
2023-02-11T10:09:01.536Z,16.33
2023-02-11T10:11:39.284Z,17.10
2023-02-11T10:14:33.959Z,16.17
2023-02-11T10:17:21.538Z,16.80
2023-02-11T10:20:16.948Z,15.30
2023-02-11T10:23:19.249Z,16.17
2023-02-11T10:25:50.673Z,16.13
2023-02-11T10:28:20.211Z,14.95
2023-02-11T10:31:15.793Z,16.02
2023-02-11T10:33:52.321Z,16.42
2023-02-11T10:36:19.702Z,17.00
2023-02-11T10:38:46.076Z,14.38
2023-02-11T10:41:25.024Z,14.98
2023-02-11T10:43:52.166Z,15.65
2023-02-11T10:46:24.043Z,15.68
2023-02-11T10:48:53.632Z,15.80
2023-02-11T10:51:34.206Z,15.68
2023-02-11T10:54:03.496Z,14.95
2023-02-11T10:56:32.620Z,16.60
2023-02-11T10:59:01.700Z,16.38
2023-02-11T11:01:40.748Z,14.20
2023-02-11T11:04:40.211Z,15.82
2023-02-11T11:07:22.741Z,15.52
2023-02-11T11:09:55.750Z,16.13
2023-02-11T11:12:32.956Z,15.27
2023-02-11T11:15:02.458Z,15.63
2023-02-11T11:17:29.177Z,15.88
2023-02-11T11:20:15.884Z,15.73
2023-02-11T11:22:43.167Z,15.88
2023-02-11T11:25:29.246Z,14.82
2023-02-11T11:27:59.153Z,14.52
2023-02-11T11:30:32.976Z,15.50
2023-02-11T11:33:00.821Z,13.27
2023-02-11T11:35:29.855Z,15.15
2023-02-11T11:38:02.345Z,15.82
2023-02-11T11:40:31.401Z,15.90
2023-02-11T11:43:23.255Z,15.18
2023-02-11T11:45:56.449Z,15.07
2023-02-11T11:48:28.328Z,15.02
2023-02-11T11:51:02.163Z,15.25
2023-02-11T11:53:41.204Z,14.68
2023-02-11T11:56:28.675Z,14.40
2023-02-11T11:58:55.039Z,14.32
2023-02-11T12:01:58.914Z,13.98
2023-02-11T12:05:15.355Z,14.63
2023-02-11T12:08:05.574Z,13.63
2023-02-11T12:10:44.057Z,15.13
2023-02-11T12:13:39.387Z,13.50
2023-02-11T12:16:28.384Z,13.43
2023-02-11T12:19:13.595Z,12.93
2023-02-11T12:21:58.283Z,15.02
2023-02-11T12:24:45.090Z,14.45
2023-02-11T12:27:43.872Z,13.85
2023-02-11T12:30:25.035Z,16.42
2023-02-11T12:33:39.925Z,14.52
2023-02-11T12:36:32.438Z,14.77
2023-02-11T12:39:16.719Z,14.23
2023-02-11T12:42:38.030Z,13.45
2023-02-11T12:45:14.002Z,15.57
2023-02-11T12:48:04.876Z,14.93
2023-02-11T12:50:46.227Z,15.15
2023-02-11T12:53:37.506Z,14.23
2023-02-11T12:56:18.208Z,15.27
2023-02-11T12:58:47.531Z,19.88
2023-02-11T13:01:23.529Z,14.20
2023-02-11T13:04:13.502Z,14.88
2023-02-11T13:06:51.880Z,15.02
2023-02-11T13:09:34.696Z,12.18
2023-02-11T13:12:24.267Z,14.45
2023-02-11T13:14:54.401Z,14.52
2023-02-11T13:17:29.922Z,14.45
2023-02-11T13:20:08.018Z,12.85
2023-02-11T13:22:44.030Z,13.32
2023-02-11T13:25:26.380Z,14.88
2023-02-11T13:28:25.628Z,13.30
2023-02-11T13:31:02.150Z,13.60
2023-02-11T13:33:35.308Z,14.68
2023-02-11T13:36:04.394Z,15.32
2023-02-11T13:38:32.431Z,13.60
2023-02-11T13:41:24.650Z,13.55
2023-02-11T13:44:04.082Z,13.10
2023-02-11T13:46:54.100Z,13.45
2023-02-11T13:49:24.573Z,13.98
2023-02-11T13:51:52.388Z,12.10
2023-02-11T13:54:39.595Z,14.07
2023-02-11T13:57:21.002Z,13.55
2023-02-11T13:59:51.680Z,13.82
2023-02-11T14:02:44.257Z,14.30
2023-02-11T14:09:01.811Z,13.75
2023-02-11T14:11:34.057Z,12.40
2023-02-11T14:14:18.783Z,15.05
2023-02-11T14:17:11.210Z,15.27
2023-02-11T14:19:40.804Z,14.27
2023-02-11T14:22:40.250Z,14.57
2023-02-11T14:25:20.112Z,14.65
2023-02-11T14:27:54.455Z,12.73
2023-02-11T14:30:30.534Z,12.93
2023-02-11T14:33:14.162Z,13.75
2023-02-11T14:36:07.001Z,14.93
2023-02-11T14:38:51.446Z,14.85
2023-02-11T14:41:24.508Z,12.57
2023-02-11T14:43:57.763Z,13.40
2023-02-11T14:46:27.830Z,14.50
2023-02-11T14:48:58.178Z,14.20
2023-02-11T14:51:28.114Z,12.90
2023-02-11T14:53:59.208Z,13.85
2023-02-11T14:56:31.232Z,14.02
2023-02-11T14:58:58.318Z,13.77
2023-02-11T15:01:33.854Z,13.27
2023-02-11T15:04:02.875Z,12.23
2023-02-11T15:06:36.724Z,13.70
2023-02-11T15:09:16.591Z,13.75
2023-02-11T15:11:46.520Z,14.23
2023-02-11T15:14:28.381Z,13.73
2023-02-11T15:16:58.292Z,13.15
2023-02-11T15:19:38.929Z,13.88
2023-02-11T15:22:10.582Z,12.93
2023-02-11T15:24:39.251Z,12.63
2023-02-11T15:27:08.602Z,14.02
2023-02-11T15:29:41.227Z,14.82
2023-02-11T15:32:17.686Z,13.18
2023-02-11T15:34:45.970Z,13.27
2023-02-11T15:37:24.807Z,13.13
2023-02-11T15:39:52.449Z,13.18
2023-02-11T15:42:27.689Z,14.13
2023-02-11T15:45:13.670Z,13.20
2023-02-11T15:47:53.001Z,12.95
2023-02-11T15:50:24.433Z,14.70
2023-02-11T15:52:52.418Z,13.75
2023-02-11T15:55:20.471Z,13.68
2023-02-11T15:57:54.772Z,13.57
2023-02-11T16:00:24.657Z,13.85
2023-02-11T16:02:52.381Z,13.57
2023-02-11T16:05:28.201Z,14.00
2023-02-11T16:10:40.008Z,12.77
2023-02-11T16:13:06.310Z,13.52
2023-02-11T16:15:38.144Z,14.00
2023-02-11T16:18:14.088Z,13.50
2023-02-11T16:20:40.875Z,13.60
2023-02-11T16:23:07.837Z,15.20
2023-02-11T16:25:37.610Z,15.02
2023-02-11T16:30:36.406Z,13.13
2023-02-11T16:33:04.156Z,14.32
2023-02-11T16:35:30.630Z,16.20
2023-02-11T16:37:57.380Z,14.25
2023-02-11T16:40:24.024Z,15.95
2023-02-11T16:42:52.357Z,15.02
2023-02-11T16:45:18.924Z,17.05
2023-02-11T16:47:46.129Z,16.45
2023-02-11T16:50:22.504Z,15.98
2023-02-11T16:52:49.179Z,16.77
2023-02-11T16:55:15.665Z,15.30
2023-02-11T16:57:42.005Z,14.55
2023-02-11T17:00:08.932Z,18.52
2023-02-11T17:02:36.965Z,17.13
2023-02-11T17:05:08.555Z,15.88
2023-02-11T17:07:35.290Z,18.90
2023-02-11T17:10:02.037Z,18.55
2023-02-11T17:12:28.390Z,18.67
2023-02-11T17:14:54.750Z,18.38
2023-02-11T17:17:23.864Z,18.77
2023-02-11T17:19:51.114Z,17.67
2023-02-11T17:22:18.412Z,17.80
2023-02-11T17:24:44.751Z,17.10
2023-02-11T17:27:11.762Z,15.38
2023-02-11T17:29:38.140Z,17.95
2023-02-11T17:32:04.619Z,15.48
2023-02-11T17:34:32.264Z,16.95
2023-02-11T17:37:00.073Z,15.82
2023-02-11T17:39:27.506Z,15.77
2023-02-11T17:41:53.881Z,17.25
2023-02-11T17:44:20.454Z,15.80
2023-02-11T17:46:46.834Z,13.98
2023-02-11T17:49:13.211Z,17.65
2023-02-11T17:51:40.246Z,17.25
2023-02-11T17:54:10.807Z,16.00
2023-02-11T17:56:37.653Z,15.85
2023-02-11T17:59:05.340Z,16.02
2023-02-11T18:01:33.370Z,15.35
2023-02-11T18:04:00.777Z,16.60
2023-02-11T18:06:28.967Z,15.98
2023-02-11T18:08:58.009Z,16.38
2023-02-11T18:11:25.246Z,16.30
2023-02-11T18:13:54.468Z,16.35
2023-02-11T18:16:22.357Z,16.50
2023-02-11T18:18:49.778Z,16.13
2023-02-11T18:21:20.756Z,16.30
2023-02-11T18:23:48.037Z,16.40
2023-02-11T18:26:16.140Z,15.82
2023-02-11T18:28:45.561Z,13.95
2023-02-11T18:31:13.714Z,16.00
2023-02-11T18:33:41.425Z,16.15
2023-02-11T18:36:09.751Z,14.50
2023-02-11T18:38:36.569Z,16.33
2023-02-11T18:41:04.041Z,16.58
2023-02-11T18:43:31.652Z,16.05
2023-02-11T18:45:58.401Z,15.50
2023-02-11T18:48:26.996Z,15.85
2023-02-11T18:50:54.470Z,16.67
2023-02-11T18:53:21.248Z,15.80
2023-02-11T18:55:47.811Z,14.68
2023-02-11T18:58:15.349Z,16.23
2023-02-11T19:00:44.484Z,15.38
2023-02-11T19:03:11.125Z,14.98
2023-02-11T19:05:46.510Z,19.48
2023-02-11T19:08:13.661Z,15.40
2023-02-11T19:10:42.397Z,14.65
2023-02-11T19:13:10.148Z,15.80
2023-02-11T19:15:41.422Z,14.40
2023-02-11T19:18:07.801Z,16.13
2023-02-11T19:20:34.163Z,16.13
2023-02-11T19:23:00.832Z,16.10
2023-02-11T19:25:27.473Z,15.88
2023-02-11T19:27:53.843Z,16.08
2023-02-11T19:30:20.252Z,17.55
2023-02-11T19:32:46.579Z,17.52
2023-02-11T19:35:12.941Z,17.05
2023-02-11T19:37:39.291Z,16.98
2023-02-11T19:40:06.383Z,16.45
2023-02-11T19:42:32.725Z,16.02
2023-02-11T19:44:59.120Z,16.92
2023-02-11T19:47:27.609Z,15.30
2023-02-11T19:49:54.395Z,15.50
2023-02-11T19:52:20.837Z,15.27
2023-02-11T19:54:47.218Z,15.93
2023-02-11T19:57:13.571Z,16.90
2023-02-11T19:59:40.008Z,16.65
2023-02-11T20:02:06.603Z,16.67
2023-02-11T20:04:33.270Z,16.00
2023-02-11T20:07:00.908Z,16.17
2023-02-11T20:09:28.941Z,15.65
2023-02-11T20:11:55.309Z,14.55
2023-02-11T20:14:21.660Z,15.32
2023-02-11T20:16:49.932Z,14.55
2023-02-11T20:19:19.195Z,15.05
2023-02-11T20:21:47.921Z,14.93
2023-02-11T20:24:18.042Z,15.93
2023-02-11T20:26:46.750Z,14.85
2023-02-11T20:29:13.127Z,16.13
2023-02-11T20:31:39.567Z,15.57
2023-02-11T20:34:05.970Z,15.95
2023-02-11T20:36:35.590Z,14.70
2023-02-11T20:41:34.142Z,15.10
2023-02-11T20:44:04.390Z,14.75
2023-02-11T20:46:32.866Z,14.30
2023-02-11T20:49:00.430Z,13.85
2023-02-11T20:51:29.730Z,13.75
2023-02-11T20:53:56.721Z,12.73
2023-02-11T20:56:29.019Z,12.10
2023-02-11T20:58:57.576Z,13.55
2023-02-11T21:01:27.216Z,13.43
2023-02-11T21:06:30.918Z,12.02
2023-02-11T21:08:57.544Z,12.38
2023-02-11T21:11:24.157Z,12.52
2023-02-11T21:13:51.041Z,12.93
2023-02-11T21:16:22.876Z,13.15
2023-02-11T21:18:50.489Z,13.30
2023-02-11T21:21:17.298Z,13.82
2023-02-11T21:23:43.843Z,13.52
2023-02-11T21:26:10.458Z,14.20
2023-02-11T21:28:40.522Z,14.23
2023-02-11T21:31:07.642Z,14.20
2023-02-11T21:33:34.625Z,14.18
2023-02-11T21:36:03.524Z,13.85
2023-02-11T21:38:30.411Z,15.75
2023-02-11T21:41:03.079Z,12.80
2023-02-11T21:43:29.841Z,13.88
2023-02-11T21:45:56.437Z,13.75
2023-02-11T21:48:23.827Z,12.75
2023-02-11T21:50:50.524Z,13.32
2023-02-11T21:53:16.912Z,13.23
2023-02-11T21:55:43.619Z,12.80
2023-02-11T21:58:11.049Z,13.07
2023-02-11T22:00:37.516Z,13.18
2023-02-11T22:03:03.943Z,13.18
2023-02-11T22:05:30.392Z,13.52
2023-02-11T22:07:56.799Z,14.10
2023-02-11T22:10:23.687Z,15.02
2023-02-11T22:12:50.047Z,15.52
2023-02-11T22:15:16.485Z,15.93
2023-02-11T22:17:42.855Z,16.13
2023-02-11T22:20:10.162Z,14.80
2023-02-11T22:22:36.536Z,15.90
2023-02-11T22:25:04.000Z,17.50
2023-02-11T22:27:30.712Z,17.13
2023-02-11T22:29:57.068Z,16.73
2023-02-11T22:32:23.455Z,16.95
2023-02-11T22:34:52.180Z,16.60
2023-02-11T22:37:19.667Z,15.00
2023-02-11T22:39:46.031Z,17.50
2023-02-11T22:42:12.404Z,16.63
2023-02-11T22:44:38.744Z,18.35
2023-02-11T22:47:05.100Z,17.17
2023-02-11T22:49:33.122Z,17.77
2023-02-11T22:51:59.954Z,16.67
2023-02-11T22:54:26.395Z,16.10
2023-02-11T22:56:53.337Z,16.00
2023-02-11T22:59:20.691Z,17.55
2023-02-11T23:01:48.788Z,16.30
2023-02-11T23:04:17.076Z,16.55
2023-02-11T23:06:43.891Z,17.95
2023-02-11T23:09:12.369Z,17.38
2023-02-11T23:11:40.468Z,16.95
2023-02-11T23:14:08.618Z,17.60
2023-02-11T23:16:35.413Z,18.05
2023-02-11T23:19:06.171Z,18.48
2023-02-11T23:21:35.706Z,18.35
2023-02-11T23:24:05.976Z,19.27
2023-02-11T23:26:32.457Z,19.08
2023-02-11T23:28:59.456Z,19.80
2023-02-11T23:31:34.633Z,18.58
2023-02-11T23:34:01.612Z,18.33
2023-02-11T23:36:28.488Z,18.77
2023-02-11T23:38:55.247Z,17.50
2023-02-11T23:41:21.686Z,18.67
2023-02-11T23:43:53.269Z,18.15
2023-02-11T23:46:22.099Z,18.70
2023-02-11T23:48:49.310Z,18.85
2023-02-11T23:51:16.099Z,20.00
2023-02-11T23:53:42.584Z,18.92
2023-02-11T23:56:11.128Z,19.00
2023-02-11T23:58:37.513Z,20.67
